sensor_id;sensor_type;location;lat;lon;timestamp;pressure;altitude;pressure_sealevel;temperature;humidity
68594;BME280;55563;52.416;13.548;2023-03-15T00:01:27;100293.41;;;0.91;100.00
68594;BME280;55563;52.416;13.548;2023-03-15T00:03:28;100302.53;;;0.94;100.00
68594;BME280;55563;52.416;13.548;2023-03-15T00:05:28;100305.56;;;0.77;100.00
68594;BME280;55563;52.416;13.548;2023-03-15T00:07:29;100309.34;;;0.75;100.00
68594;BME280;55563;52.416;13.548;2023-03-15T00:09:30;100313.94;;;0.86;100.00
68594;BME280;55563;52.416;13.548;2023-03-15T00:11:31;100314.13;;;0.78;100.00
68594;BME280;55563;52.416;13.548;2023-03-15T00:13:32;100326.84;;;0.79;100.00
68594;BME280;55563;52.416;13.548;2023-03-15T00:15:33;100324.47;;;0.78;100.00
68594;BME280;55563;52.416;13.548;2023-03-15T00:17:33;100327.84;;;0.78;100.00
68594;BME280;55563;52.416;13.548;2023-03-15T00:19:34;100332.59;;;0.88;100.00
68594;BME280;55563;52.416;13.548;2023-03-15T00:21:35;100332.22;;;0.78;100.00
68594;BME280;55563;52.416;13.548;2023-03-15T00:23:36;100330.84;;;0.75;100.00
68594;BME280;55563;52.416;13.548;2023-03-15T00:25:36;100335.41;;;0.73;100.00
68594;BME280;55563;52.416;13.548;2023-03-15T00:27:37;100343.38;;;0.78;100.00
68594;BME280;55563;52.416;13.548;2023-03-15T00:29:38;100345.56;;;0.81;100.00
68594;BME280;55563;52.416;13.548;2023-03-15T00:31:39;100347.34;;;0.74;100.00
68594;BME280;55563;52.416;13.548;2023-03-15T00:33:39;100348.53;;;0.78;100.00
68594;BME280;55563;52.416;13.548;2023-03-15T00:35:42;100349.34;;;0.59;100.00
68594;BME280;55563;52.416;13.548;2023-03-15T00:37:44;100360.09;;;0.56;100.00
68594;BME280;55563;52.416;13.548;2023-03-15T00:39:46;100360.91;;;0.57;100.00
68594;BME280;55563;52.416;13.548;2023-03-15T00:41:47;100371.22;;;0.63;100.00
68594;BME280;55563;52.416;13.548;2023-03-15T00:43:48;100366.88;;;0.57;100.00
68594;BME280;55563;52.416;13.548;2023-03-15T00:45:49;100371.81;;;0.59;100.00
68594;BME280;55563;52.416;13.548;2023-03-15T00:47:51;100370.63;;;0.48;100.00
68594;BME280;55563;52.416;13.548;2023-03-15T00:49:54;100376.41;;;0.50;100.00
68594;BME280;55563;52.416;13.548;2023-03-15T00:51:56;100381.59;;;0.50;100.00
68594;BME280;55563;52.416;13.548;2023-03-15T00:53:56;100378.00;;;0.58;100.00
68594;BME280;55563;52.416;13.548;2023-03-15T00:55:57;100380.19;;;0.61;100.00
68594;BME280;55563;52.416;13.548;2023-03-15T00:57:58;100382.38;;;0.44;100.00
68594;BME280;55563;52.416;13.548;2023-03-15T00:59:58;100390.72;;;0.39;100.00
68594;BME280;55563;52.416;13.548;2023-03-15T01:02:01;100397.50;;;0.47;100.00
68594;BME280;55563;52.416;13.548;2023-03-15T01:04:02;100390.53;;;0.41;100.00
68594;BME280;55563;52.416;13.548;2023-03-15T01:06:05;100392.31;;;0.54;100.00
68594;BME280;55563;52.416;13.548;2023-03-15T01:08:07;100395.28;;;0.44;100.00
68594;BME280;55563;52.416;13.548;2023-03-15T01:10:09;100395.09;;;0.46;100.00
68594;BME280;55563;52.416;13.548;2023-03-15T01:12:10;100396.88;;;0.32;100.00
68594;BME280;55563;52.416;13.548;2023-03-15T01:14:11;100401.66;;;0.41;100.00
68594;BME280;55563;52.416;13.548;2023-03-15T01:16:13;100398.69;;;0.44;100.00
68594;BME280;55563;52.416;13.548;2023-03-15T01:18:14;100403.25;;;0.42;100.00
68594;BME280;55563;52.416;13.548;2023-03-15T01:20:15;100409.41;;;0.35;100.00
68594;BME280;55563;52.416;13.548;2023-03-15T01:22:16;100409.59;;;0.27;100.00
68594;BME280;55563;52.416;13.548;2023-03-15T01:24:17;100418.34;;;0.26;100.00
68594;BME280;55563;52.416;13.548;2023-03-15T01:26:18;100413.78;;;0.28;100.00
68594;BME280;55563;52.416;13.548;2023-03-15T01:28:19;100413.78;;;0.28;100.00
68594;BME280;55563;52.416;13.548;2023-03-15T01:30:20;100420.75;;;0.40;100.00
68594;BME280;55563;52.416;13.548;2023-03-15T01:32:22;100425.09;;;0.27;100.00
68594;BME280;55563;52.416;13.548;2023-03-15T01:34:22;100423.09;;;0.29;100.00
68594;BME280;55563;52.416;13.548;2023-03-15T01:36:23;100430.66;;;0.30;100.00
68594;BME280;55563;52.416;13.548;2023-03-15T01:38:24;100430.47;;;0.32;100.00
68594;BME280;55563;52.416;13.548;2023-03-15T01:40:25;100430.28;;;0.33;100.00
68594;BME280;55563;52.416;13.548;2023-03-15T01:42:26;100439.03;;;0.32;100.00
68594;BME280;55563;52.416;13.548;2023-03-15T01:44:51;100437.00;;;0.21;100.00
68594;BME280;55563;52.416;13.548;2023-03-15T01:46:52;100433.41;;;0.16;100.00
68594;BME280;55563;52.416;13.548;2023-03-15T01:49:16;100448.13;;;0.09;100.00
68594;BME280;55563;52.416;13.548;2023-03-15T01:51:25;100442.16;;;0.15;100.00
68594;BME280;55563;52.416;13.548;2023-03-15T01:53:29;100451.72;;;0.21;100.00
68594;BME280;55563;52.416;13.548;2023-03-15T01:55:31;100451.28;;;0.11;100.00
68594;BME280;55563;52.416;13.548;2023-03-15T01:57:40;100456.88;;;0.14;100.00
68594;BME280;55563;52.416;13.548;2023-03-15T01:59:49;100440.59;;;0.14;100.00
68594;BME280;55563;52.416;13.548;2023-03-15T02:01:53;100449.91;;;0.15;100.00
68594;BME280;55563;52.416;13.548;2023-03-15T02:04:00;100440.59;;;0.20;100.00
68594;BME280;55563;52.416;13.548;2023-03-15T02:06:08;100451.72;;;0.14;100.00
68594;BME280;55563;52.416;13.548;2023-03-15T02:08:17;100451.09;;;0.12;100.00
68594;BME280;55563;52.416;13.548;2023-03-15T02:10:33;100448.94;;;0.09;100.00
68594;BME280;55563;52.416;13.548;2023-03-15T02:12:40;100450.88;;;0.07;100.00
68594;BME280;55563;52.416;13.548;2023-03-15T02:14:43;100457.25;;;0.05;100.00
68594;BME280;55563;52.416;13.548;2023-03-15T02:16:47;100459.22;;;0.03;100.00
68594;BME280;55563;52.416;13.548;2023-03-15T02:18:50;100460.63;;;0.05;100.00
68594;BME280;55563;52.416;13.548;2023-03-15T02:23:17;100458.03;;;0.05;100.00
68594;BME280;55563;52.416;13.548;2023-03-15T02:28:05;100471.16;;;0.04;100.00
68594;BME280;55563;52.416;13.548;2023-03-15T02:30:08;100481.09;;;0.07;100.00
68594;BME280;55563;52.416;13.548;2023-03-15T02:32:10;100483.06;;;-0.02;100.00
68594;BME280;55563;52.416;13.548;2023-03-15T02:34:11;100482.06;;;-0.01;100.00
68594;BME280;55563;52.416;13.548;2023-03-15T02:36:28;100483.50;;;0.08;100.00
68594;BME280;55563;52.416;13.548;2023-03-15T02:38:32;100486.47;;;0.12;100.00
68594;BME280;55563;52.416;13.548;2023-03-15T02:40:33;100498.97;;;0.02;100.00
68594;BME280;55563;52.416;13.548;2023-03-15T02:42:34;100490.41;;;0.01;100.00
68594;BME280;55563;52.416;13.548;2023-03-15T02:44:36;100495.63;;;0.08;100.00
68594;BME280;55563;52.416;13.548;2023-03-15T02:46:38;100498.94;;;-0.05;100.00
68594;BME280;55563;52.416;13.548;2023-03-15T02:48:40;100499.94;;;0.00;100.00
68594;BME280;55563;52.416;13.548;2023-03-15T02:50:42;100490.44;;;0.08;100.00
68594;BME280;55563;52.416;13.548;2023-03-15T02:52:42;100498.16;;;0.01;100.00
68594;BME280;55563;52.416;13.548;2023-03-15T02:54:43;100503.91;;;-0.04;100.00
68594;BME280;55563;52.416;13.548;2023-03-15T02:56:43;100500.28;;;-0.09;100.00
68594;BME280;55563;52.416;13.548;2023-03-15T02:58:44;100509.09;;;0.03;100.00
68594;BME280;55563;52.416;13.548;2023-03-15T03:00:51;100507.28;;;-0.03;100.00
68594;BME280;55563;52.416;13.548;2023-03-15T03:02:53;100508.09;;;-0.03;100.00
68594;BME280;55563;52.416;13.548;2023-03-15T03:04:54;100514.69;;;0.07;100.00
68594;BME280;55563;52.416;13.548;2023-03-15T03:06:54;100521.00;;;-0.03;100.00
68594;BME280;55563;52.416;13.548;2023-03-15T03:08:58;100527.31;;;-0.12;100.00
68594;BME280;55563;52.416;13.548;2023-03-15T03:11:00;100536.47;;;-0.09;100.00
68594;BME280;55563;52.416;13.548;2023-03-15T03:13:02;100538.06;;;-0.08;100.00
68594;BME280;55563;52.416;13.548;2023-03-15T03:15:10;100537.88;;;-0.07;100.00
68594;BME280;55563;52.416;13.548;2023-03-15T03:17:13;100540.50;;;0.00;100.00
68594;BME280;55563;52.416;13.548;2023-03-15T03:19:14;100537.31;;;-0.02;100.00
68594;BME280;55563;52.416;13.548;2023-03-15T03:21:16;100537.88;;;-0.07;100.00
68594;BME280;55563;52.416;13.548;2023-03-15T03:23:17;100542.41;;;-0.15;100.00
68594;BME280;55563;52.416;13.548;2023-03-15T03:25:18;100545.00;;;-0.09;100.00
68594;BME280;55563;52.416;13.548;2023-03-15T03:27:20;100547.19;;;-0.12;100.00
68594;BME280;55563;52.416;13.548;2023-03-15T03:29:23;100552.41;;;-0.06;100.00
68594;BME280;55563;52.416;13.548;2023-03-15T03:31:25;100555.56;;;-0.04;100.00
68594;BME280;55563;52.416;13.548;2023-03-15T03:33:28;100559.94;;;-0.04;100.00
68594;BME280;55563;52.416;13.548;2023-03-15T03:35:30;100557.97;;;-0.02;100.00
68594;BME280;55563;52.416;13.548;2023-03-15T03:37:31;100556.59;;;0.02;100.00
68594;BME280;55563;52.416;13.548;2023-03-15T03:39:35;100558.59;;;0.00;100.00
68594;BME280;55563;52.416;13.548;2023-03-15T03:41:36;100559.75;;;-0.03;100.00
68594;BME280;55563;52.416;13.548;2023-03-15T03:43:37;100558.19;;;0.03;100.00
68594;BME280;55563;52.416;13.548;2023-03-15T03:45:38;100568.94;;;0.07;100.00
68594;BME280;55563;52.416;13.548;2023-03-15T03:47:40;100575.09;;;0.06;100.00
68594;BME280;55563;52.416;13.548;2023-03-15T03:49:41;100573.69;;;0.03;100.00
68594;BME280;55563;52.416;13.548;2023-03-15T03:51:42;100573.28;;;-0.01;100.00
68594;BME280;55563;52.416;13.548;2023-03-15T03:53:43;100575.06;;;-0.01;100.00
68594;BME280;55563;52.416;13.548;2023-03-15T03:55:44;100575.81;;;-0.07;100.00
68594;BME280;55563;52.416;13.548;2023-03-15T03:57:50;100575.09;;;0.06;100.00
68594;BME280;55563;52.416;13.548;2023-03-15T04:00:11;100579.66;;;0.04;100.00
68594;BME280;55563;52.416;13.548;2023-03-15T04:02:18;100587.88;;;0.20;100.00
68594;BME280;55563;52.416;13.548;2023-03-15T04:04:29;100586.44;;;0.11;100.00
68594;BME280;55563;52.416;13.548;2023-03-15T04:06:30;100592.03;;;0.15;100.00
68594;BME280;55563;52.416;13.548;2023-03-15T04:08:31;100593.75;;;0.01;100.00
68594;BME280;55563;52.416;13.548;2023-03-15T04:10:31;100598.44;;;-0.09;100.00
68594;BME280;55563;52.416;13.548;2023-03-15T04:12:34;100595.84;;;-0.16;100.00
68594;BME280;55563;52.416;13.548;2023-03-15T04:14:35;100597.34;;;-0.28;100.00
68594;BME280;55563;52.416;13.548;2023-03-15T04:16:39;100591.53;;;-0.36;100.00
68594;BME280;55563;52.416;13.548;2023-03-15T04:18:43;100600.78;;;-0.49;100.00
68594;BME280;55563;52.416;13.548;2023-03-15T04:20:46;100607.50;;;-0.48;100.00
68594;BME280;55563;52.416;13.548;2023-03-15T04:22:49;100603.41;;;-0.42;100.00
68594;BME280;55563;52.416;13.548;2023-03-15T04:24:56;100614.56;;;-0.63;100.00
68594;BME280;55563;52.416;13.548;2023-03-15T04:27:10;100617.06;;;-0.48;100.00
68594;BME280;55563;52.416;13.548;2023-03-15T04:29:27;100611.97;;;-0.63;100.00
68594;BME280;55563;52.416;13.548;2023-03-15T04:31:47;100616.09;;;-0.68;100.00
68594;BME280;55563;52.416;13.548;2023-03-15T04:33:55;100621.38;;;-0.76;100.00
68594;BME280;55563;52.416;13.548;2023-03-15T04:36:15;100615.19;;;-0.82;100.00
68594;BME280;55563;52.416;13.548;2023-03-15T04:38:39;100620.78;;;-0.78;100.00
68594;BME280;55563;52.416;13.548;2023-03-15T04:40:54;100619.22;;;-0.94;100.00
68594;BME280;55563;52.416;13.548;2023-03-15T04:43:05;100631.75;;;-0.91;100.00
68594;BME280;55563;52.416;13.548;2023-03-15T04:45:14;100629.88;;;-0.82;100.00
68594;BME280;55563;52.416;13.548;2023-03-15T04:47:31;100629.91;;;-0.97;100.00
68594;BME280;55563;52.416;13.548;2023-03-15T04:49:52;100632.03;;;-1.01;100.00
68594;BME280;55563;52.416;13.548;2023-03-15T04:52:12;100638.28;;;-1.10;100.00
68594;BME280;55563;52.416;13.548;2023-03-15T04:54:33;100632.41;;;-1.04;100.00
68594;BME280;55563;52.416;13.548;2023-03-15T04:56:45;100632.41;;;-1.04;100.00
68594;BME280;55563;52.416;13.548;2023-03-15T04:59:03;100642.13;;;-1.06;100.00
68594;BME280;55563;52.416;13.548;2023-03-15T05:01:27;100646.91;;;-1.03;100.00
68594;BME280;55563;52.416;13.548;2023-03-15T05:03:49;100649.63;;;-1.11;100.00
68594;BME280;55563;52.416;13.548;2023-03-15T05:06:03;100658.13;;;-1.10;100.00
68594;BME280;55563;52.416;13.548;2023-03-15T05:08:27;100659.66;;;-1.16;100.00
68594;BME280;55563;52.416;13.548;2023-03-15T05:10:47;100664.28;;;-1.11;100.00
68594;BME280;55563;52.416;13.548;2023-03-15T05:12:59;100653.34;;;-1.13;100.00
68594;BME280;55563;52.416;13.548;2023-03-15T05:15:11;100669.69;;;-1.06;100.00
68594;BME280;55563;52.416;13.548;2023-03-15T05:17:32;100674.41;;;-1.10;100.00
68594;BME280;55563;52.416;13.548;2023-03-15T05:19:53;100675.56;;;-1.12;100.00
68594;BME280;55563;52.416;13.548;2023-03-15T05:22:07;100686.03;;;-0.99;100.00
68594;BME280;55563;52.416;13.548;2023-03-15T05:24:23;100685.56;;;-0.88;100.00
68594;BME280;55563;52.416;13.548;2023-03-15T05:26:31;100688.31;;;-0.90;100.00
68594;BME280;55563;52.416;13.548;2023-03-15T05:28:46;100695.63;;;-0.72;100.00
68594;BME280;55563;52.416;13.548;2023-03-15T05:31:07;100695.72;;;-0.65;100.00
68594;BME280;55563;52.416;13.548;2023-03-15T05:33:27;100698.38;;;-0.59;100.00
68594;BME280;55563;52.416;13.548;2023-03-15T05:35:47;100713.19;;;-0.46;100.00
68594;BME280;55563;52.416;13.548;2023-03-15T05:38:06;100711.72;;;-0.55;100.00
68594;BME280;55563;52.416;13.548;2023-03-15T05:40:27;100714.91;;;-0.53;100.00
68594;BME280;55563;52.416;13.548;2023-03-15T05:42:38;100712.28;;;-0.38;100.00
68594;BME280;55563;52.416;13.548;2023-03-15T05:45:06;100715.47;;;-0.36;100.00
68594;BME280;55563;52.416;13.548;2023-03-15T05:47:20;100720.47;;;-0.28;100.00
68594;BME280;55563;52.416;13.548;2023-03-15T05:49:41;100725.91;;;-0.23;100.00
68594;BME280;55563;52.416;13.548;2023-03-15T05:52:01;100722.97;;;-0.20;100.00
68594;BME280;55563;52.416;13.548;2023-03-15T05:54:19;100723.88;;;-0.07;100.00
68594;BME280;55563;52.416;13.548;2023-03-15T05:56:40;100727.59;;;0.12;100.00
68594;BME280;55563;52.416;13.548;2023-03-15T05:59:01;100730.41;;;0.17;100.00
68594;BME280;55563;52.416;13.548;2023-03-15T06:01:17;100732.00;;;0.18;100.00
68594;BME280;55563;52.416;13.548;2023-03-15T06:03:37;100741.63;;;0.31;100.00
68594;BME280;55563;52.416;13.548;2023-03-15T06:05:47;100741.22;;;0.27;100.00
68594;BME280;55563;52.416;13.548;2023-03-15T06:07:52;100737.59;;;0.22;100.00
68594;BME280;55563;52.416;13.548;2023-03-15T06:09:54;100742.59;;;0.23;100.00
68594;BME280;55563;52.416;13.548;2023-03-15T06:11:55;100746.31;;;0.21;100.00
68594;BME280;55563;52.416;13.548;2023-03-15T06:13:56;100755.84;;;0.14;100.00
68594;BME280;55563;52.416;13.548;2023-03-15T06:16:10;100758.22;;;0.15;100.00
68594;BME280;55563;52.416;13.548;2023-03-15T06:18:15;100766.84;;;0.29;100.00
68594;BME280;55563;52.416;13.548;2023-03-15T06:20:17;100769.13;;;0.38;100.00
68594;BME280;55563;52.416;13.548;2023-03-15T06:22:18;100778.00;;;0.92;100.00
68594;BME280;55563;52.416;13.548;2023-03-15T06:24:26;100781.47;;;1.72;100.00
68594;BME280;55563;52.416;13.548;2023-03-15T06:26:27;100789.41;;;1.58;100.00
68594;BME280;55563;52.416;13.548;2023-03-15T06:28:33;100786.50;;;2.13;100.00
68594;BME280;55563;52.416;13.548;2023-03-15T06:30:35;100786.91;;;2.10;100.00
68594;BME280;55563;52.416;13.548;2023-03-15T06:32:36;100798.94;;;1.51;100.00
68594;BME280;55563;52.416;13.548;2023-03-15T06:34:37;100796.41;;;1.10;100.00
68594;BME280;55563;52.416;13.548;2023-03-15T06:36:37;100795.53;;;0.96;100.00
68594;BME280;55563;52.416;13.548;2023-03-15T06:38:38;100809.84;;;0.92;100.00
68594;BME280;55563;52.416;13.548;2023-03-15T06:40:39;100809.38;;;0.82;100.00
68594;BME280;55563;52.416;13.548;2023-03-15T06:42:40;100809.78;;;0.79;100.00
68594;BME280;55563;52.416;13.548;2023-03-15T06:44:43;100820.06;;;0.72;100.00
68594;BME280;55563;52.416;13.548;2023-03-15T06:46:44;100820.53;;;0.82;100.00
68594;BME280;55563;52.416;13.548;2023-03-15T06:48:45;100818.50;;;0.78;100.00
68594;BME280;55563;52.416;13.548;2023-03-15T06:50:46;100827.50;;;0.82;100.00
68594;BME280;55563;52.416;13.548;2023-03-15T06:52:47;100828.88;;;0.78;100.00
68594;BME280;55563;52.416;13.548;2023-03-15T06:54:48;100840.53;;;0.67;100.00
68594;BME280;55563;52.416;13.548;2023-03-15T06:56:49;100834.25;;;0.76;100.00
68594;BME280;55563;52.416;13.548;2023-03-15T06:58:50;100835.63;;;0.79;100.00
68594;BME280;55563;52.416;13.548;2023-03-15T07:00:50;100838.97;;;0.73;100.00
68594;BME280;55563;52.416;13.548;2023-03-15T07:02:51;100838.47;;;0.84;100.00
68594;BME280;55563;52.416;13.548;2023-03-15T07:04:52;100850.66;;;0.90;100.00
68594;BME280;55563;52.416;13.548;2023-03-15T07:06:52;100844.50;;;0.91;100.00
68594;BME280;55563;52.416;13.548;2023-03-15T07:08:53;100849.66;;;0.91;100.00
68594;BME280;55563;52.416;13.548;2023-03-15T07:10:54;100847.72;;;1.00;100.00
68594;BME280;55563;52.416;13.548;2023-03-15T07:12:54;100847.59;;;1.14;100.00
68594;BME280;55563;52.416;13.548;2023-03-15T07:14:55;100851.56;;;1.51;100.00
68594;BME280;55563;52.416;13.548;2023-03-15T07:16:56;100856.78;;;1.64;100.00
68594;BME280;55563;52.416;13.548;2023-03-15T07:18:57;100856.03;;;1.84;100.00
68594;BME280;55563;52.416;13.548;2023-03-15T07:21:02;100855.47;;;1.95;100.00
68594;BME280;55563;52.416;13.548;2023-03-15T07:23:04;100856.47;;;2.07;100.00
68594;BME280;55563;52.416;13.548;2023-03-15T07:25:05;100855.13;;;2.37;100.00
68594;BME280;55563;52.416;13.548;2023-03-15T07:27:10;100853.53;;;2.62;100.00
68594;BME280;55563;52.416;13.548;2023-03-15T07:29:12;100850.94;;;2.82;100.00
68594;BME280;55563;52.416;13.548;2023-03-15T07:31:12;100851.84;;;3.14;100.00
68594;BME280;55563;52.416;13.548;2023-03-15T07:33:13;100847.88;;;2.98;100.00
68594;BME280;55563;52.416;13.548;2023-03-15T07:35:14;100847.53;;;2.82;100.00
68594;BME280;55563;52.416;13.548;2023-03-15T07:37:16;100853.34;;;2.57;100.00
68594;BME280;55563;52.416;13.548;2023-03-15T07:39:17;100851.13;;;2.81;100.00
68594;BME280;55563;52.416;13.548;2023-03-15T07:41:17;100847.34;;;2.50;100.00
68594;BME280;55563;52.416;13.548;2023-03-15T07:43:29;100851.16;;;2.35;100.00
68594;BME280;55563;52.416;13.548;2023-03-15T07:45:41;100849.94;;;2.50;100.00
68594;BME280;55563;52.416;13.548;2023-03-15T07:47:42;100852.72;;;2.82;100.00
68594;BME280;55563;52.416;13.548;2023-03-15T07:49:43;100857.72;;;2.77;100.00
68594;BME280;55563;52.416;13.548;2023-03-15T07:51:43;100869.66;;;2.84;100.00
68594;BME280;55563;52.416;13.548;2023-03-15T07:53:44;100858.50;;;2.97;100.00
68594;BME280;55563;52.416;13.548;2023-03-15T07:55:47;100856.63;;;3.17;100.00
68594;BME280;55563;52.416;13.548;2023-03-15T07:57:47;100867.81;;;3.18;100.00
68594;BME280;55563;52.416;13.548;2023-03-15T07:59:48;100863.84;;;3.15;100.00
68594;BME280;55563;52.416;13.548;2023-03-15T08:01:48;100870.22;;;3.19;100.00
68594;BME280;55563;52.416;13.548;2023-03-15T08:03:49;100874.22;;;3.08;100.00
68594;BME280;55563;52.416;13.548;2023-03-15T08:05:50;100874.84;;;2.97;100.00
68594;BME280;55563;52.416;13.548;2023-03-15T08:07:50;100878.22;;;2.98;100.00
68594;BME280;55563;52.416;13.548;2023-03-15T08:09:51;100876.22;;;3.13;100.00
68594;BME280;55563;52.416;13.548;2023-03-15T08:11:52;100876.81;;;3.15;100.00
68594;BME280;55563;52.416;13.548;2023-03-15T08:13:52;100883.78;;;3.28;100.00
68594;BME280;55563;52.416;13.548;2023-03-15T08:15:53;100883.53;;;3.42;100.00
68594;BME280;55563;52.416;13.548;2023-03-15T08:17:54;100881.34;;;3.39;100.00
68594;BME280;55563;52.416;13.548;2023-03-15T08:19:54;100877.72;;;3.47;100.00
68594;BME280;55563;52.416;13.548;2023-03-15T08:21:55;100891.06;;;3.64;100.00
68594;BME280;55563;52.416;13.548;2023-03-15T08:23:55;100896.00;;;4.16;100.00
68594;BME280;55563;52.416;13.548;2023-03-15T08:25:56;100896.09;;;4.59;100.00
68594;BME280;55563;52.416;13.548;2023-03-15T08:27:57;100895.22;;;4.09;100.00
68594;BME280;55563;52.416;13.548;2023-03-15T08:29:58;100901.53;;;4.26;100.00
68594;BME280;55563;52.416;13.548;2023-03-15T08:31:59;100902.19;;;4.15;100.00
68594;BME280;55563;52.416;13.548;2023-03-15T08:34:00;100903.28;;;4.01;100.00
68594;BME280;55563;52.416;13.548;2023-03-15T08:36:20;100908.31;;;3.96;100.00
68594;BME280;55563;52.416;13.548;2023-03-15T08:38:27;100901.25;;;4.03;100.00
68594;BME280;55563;52.416;13.548;2023-03-15T08:40:48;100910.25;;;4.07;100.00
68594;BME280;55563;52.416;13.548;2023-03-15T08:42:56;100917.91;;;4.27;100.00
68594;BME280;55563;52.416;13.548;2023-03-15T08:45:16;100921.66;;;4.37;100.00
68594;BME280;55563;52.416;13.548;2023-03-15T08:47:24;100925.84;;;4.38;100.00
68594;BME280;55563;52.416;13.548;2023-03-15T08:49:44;100924.59;;;4.16;100.00
68594;BME280;55563;52.416;13.548;2023-03-15T08:51:58;100925.16;;;4.25;100.00
68594;BME280;55563;52.416;13.548;2023-03-15T08:54:12;100925.00;;;4.13;100.00
68594;BME280;55563;52.416;13.548;2023-03-15T08:56:27;100930.03;;;4.08;100.00
68594;BME280;55563;52.416;13.548;2023-03-15T08:58:41;100931.91;;;3.94;100.00
68594;BME280;55563;52.416;13.548;2023-03-15T09:00:55;100937.19;;;4.19;100.00
68594;BME280;55563;52.416;13.548;2023-03-15T09:03:10;100941.56;;;3.87;100.00
68594;BME280;55563;52.416;13.548;2023-03-15T09:05:24;100937.66;;;3.59;100.00
68594;BME280;55563;52.416;13.548;2023-03-15T09:07:25;100943.41;;;3.67;100.00
68594;BME280;55563;52.416;13.548;2023-03-15T09:09:26;100944.97;;;3.81;100.00
68594;BME280;55563;52.416;13.548;2023-03-15T09:11:26;100947.63;;;3.55;100.00
68594;BME280;55563;52.416;13.548;2023-03-15T09:13:27;100949.63;;;3.66;100.00
68594;BME280;55563;52.416;13.548;2023-03-15T09:15:28;100954.94;;;3.84;100.00
68594;BME280;55563;52.416;13.548;2023-03-15T09:17:29;100967.75;;;3.86;100.00
68594;BME280;55563;52.416;13.548;2023-03-15T09:19:31;100955.97;;;3.83;100.00
68594;BME280;55563;52.416;13.548;2023-03-15T09:21:31;100972.56;;;3.82;100.00
68594;BME280;55563;52.416;13.548;2023-03-15T09:23:32;100967.19;;;3.77;100.00
68594;BME280;55563;52.416;13.548;2023-03-15T09:25:33;100980.19;;;3.77;100.00
68594;BME280;55563;52.416;13.548;2023-03-15T09:27:36;100981.00;;;3.65;100.00
68594;BME280;55563;52.416;13.548;2023-03-15T09:29:37;100984.34;;;3.85;100.00
68594;BME280;55563;52.416;13.548;2023-03-15T09:31:38;100986.84;;;4.11;100.00
68594;BME280;55563;52.416;13.548;2023-03-15T09:33:38;100987.22;;;4.21;100.00
68594;BME280;55563;52.416;13.548;2023-03-15T09:35:39;100991.19;;;4.24;100.00
68594;BME280;55563;52.416;13.548;2023-03-15T09:37:41;100986.84;;;4.11;100.00
68594;BME280;55563;52.416;13.548;2023-03-15T09:39:41;100992.00;;;4.24;100.00
68594;BME280;55563;52.416;13.548;2023-03-15T09:41:45;100993.03;;;4.17;100.00
68594;BME280;55563;52.416;13.548;2023-03-15T09:46:37;101008.00;;;4.91;100.00
68594;BME280;55563;52.416;13.548;2023-03-15T09:48:55;101004.06;;;5.06;100.00
68594;BME280;55563;52.416;13.548;2023-03-15T09:51:01;101001.72;;;5.23;100.00
68594;BME280;55563;52.416;13.548;2023-03-15T09:53:13;101004.75;;;4.95;100.00
68594;BME280;55563;52.416;13.548;2023-03-15T09:55:20;101005.50;;;5.02;100.00
68594;BME280;55563;52.416;13.548;2023-03-15T09:59:47;101011.00;;;4.63;100.00
68594;BME280;55563;52.416;13.548;2023-03-15T10:01:52;101015.13;;;5.02;100.00
68594;BME280;55563;52.416;13.548;2023-03-15T10:03:55;101019.81;;;4.93;100.00
68594;BME280;55563;52.416;13.548;2023-03-15T10:05:59;101018.66;;;4.89;100.00
68594;BME280;55563;52.416;13.548;2023-03-15T10:08:02;101027.28;;;4.83;100.00
68594;BME280;55563;52.416;13.548;2023-03-15T10:10:17;101019.28;;;5.09;100.00
68594;BME280;55563;52.416;13.548;2023-03-15T10:12:39;101021.56;;;4.99;100.00
68594;BME280;55563;52.416;13.548;2023-03-15T10:20:06;101035.22;;;4.95;100.00
68594;BME280;55563;52.416;13.548;2023-03-15T10:22:18;101041.16;;;4.77;100.00
68594;BME280;55563;52.416;13.548;2023-03-15T10:24:29;101030.47;;;4.85;100.00
68594;BME280;55563;52.416;13.548;2023-03-15T10:26:35;101041.38;;;5.00;100.00
68594;BME280;55563;52.416;13.548;2023-03-15T10:28:36;101044.13;;;5.12;100.00
68594;BME280;55563;52.416;13.548;2023-03-15T10:30:45;101049.19;;;5.00;100.00
68594;BME280;55563;52.416;13.548;2023-03-15T10:33:03;101049.56;;;5.04;100.00
68594;BME280;55563;52.416;13.548;2023-03-15T10:35:13;101064.59;;;5.08;100.00
68594;BME280;55563;52.416;13.548;2023-03-15T10:37:14;101047.06;;;4.91;100.00
68594;BME280;55563;52.416;13.548;2023-03-15T10:39:15;101049.31;;;4.87;100.00
68594;BME280;55563;52.416;13.548;2023-03-15T10:41:38;101046.41;;;5.02;100.00
68594;BME280;55563;52.416;13.548;2023-03-15T10:43:39;101048.63;;;5.23;100.00
68594;BME280;55563;52.416;13.548;2023-03-15T10:45:40;101050.50;;;5.41;100.00
68594;BME280;55563;52.416;13.548;2023-03-15T10:47:42;101051.03;;;5.67;100.00
68594;BME280;55563;52.416;13.548;2023-03-15T10:49:55;101054.31;;;5.81;100.00
68594;BME280;55563;52.416;13.548;2023-03-15T10:52:28;101047.63;;;6.28;100.00
68594;BME280;55563;52.416;13.548;2023-03-15T10:54:51;101043.91;;;6.66;100.00
68594;BME280;55563;52.416;13.548;2023-03-15T10:57:04;101041.22;;;6.24;100.00
68594;BME280;55563;52.416;13.548;2023-03-15T10:59:28;101054.28;;;6.84;100.00
68594;BME280;55563;52.416;13.548;2023-03-15T11:01:45;101050.00;;;6.60;100.00
68594;BME280;55563;52.416;13.548;2023-03-15T11:04:08;101050.94;;;6.95;100.00